sensor_id;sensor_type;location;lat;lon;timestamp;P1;durP1;ratioP1;P2;durP2;ratioP2
2860;SDS011;1438;50.922;6.704;2023-03-12T00:01:25;7.25;;;4.70;;
2860;SDS011;1438;50.922;6.704;2023-03-12T00:03:53;6.53;;;5.28;;
2860;SDS011;1438;50.922;6.704;2023-03-12T00:06:19;6.97;;;3.83;;
2860;SDS011;1438;50.922;6.704;2023-03-12T00:08:46;7.20;;;5.05;;
2860;SDS011;1438;50.922;6.704;2023-03-12T00:11:13;9.25;;;4.40;;
2860;SDS011;1438;50.922;6.704;2023-03-12T00:13:40;7.05;;;4.45;;
2860;SDS011;1438;50.922;6.704;2023-03-12T00:16:07;6.28;;;4.10;;
2860;SDS011;1438;50.922;6.704;2023-03-12T00:18:33;12.55;;;4.63;;
2860;SDS011;1438;50.922;6.704;2023-03-12T00:20:59;9.52;;;3.60;;
2860;SDS011;1438;50.922;6.704;2023-03-12T00:23:25;6.63;;;4.10;;
2860;SDS011;1438;50.922;6.704;2023-03-12T00:25:51;6.25;;;4.00;;
2860;SDS011;1438;50.922;6.704;2023-03-12T00:28:17;6.38;;;3.95;;
2860;SDS011;1438;50.922;6.704;2023-03-12T00:30:43;5.57;;;3.30;;
2860;SDS011;1438;50.922;6.704;2023-03-12T00:33:10;7.45;;;4.05;;
2860;SDS011;1438;50.922;6.704;2023-03-12T00:35:37;5.18;;;3.40;;
2860;SDS011;1438;50.922;6.704;2023-03-12T00:38:03;4.22;;;3.38;;
2860;SDS011;1438;50.922;6.704;2023-03-12T00:40:29;4.15;;;3.47;;
2860;SDS011;1438;50.922;6.704;2023-03-12T00:42:55;5.80;;;3.47;;
2860;SDS011;1438;50.922;6.704;2023-03-12T00:45:21;4.95;;;3.13;;
2860;SDS011;1438;50.922;6.704;2023-03-12T00:47:47;10.38;;;3.50;;
2860;SDS011;1438;50.922;6.704;2023-03-12T00:50:13;7.68;;;4.00;;
2860;SDS011;1438;50.922;6.704;2023-03-12T00:52:40;8.35;;;3.63;;
2860;SDS011;1438;50.922;6.704;2023-03-12T00:55:06;6.88;;;3.17;;
2860;SDS011;1438;50.922;6.704;2023-03-12T00:57:32;5.65;;;2.63;;
2860;SDS011;1438;50.922;6.704;2023-03-12T00:59:58;5.53;;;3.05;;
2860;SDS011;1438;50.922;6.704;2023-03-12T01:02:24;4.22;;;2.97;;
2860;SDS011;1438;50.922;6.704;2023-03-12T01:04:50;4.13;;;3.00;;
2860;SDS011;1438;50.922;6.704;2023-03-12T01:07:16;5.72;;;2.90;;
2860;SDS011;1438;50.922;6.704;2023-03-12T01:09:42;4.28;;;2.53;;
2860;SDS011;1438;50.922;6.704;2023-03-12T01:12:08;3.72;;;2.67;;
2860;SDS011;1438;50.922;6.704;2023-03-12T01:14:34;3.53;;;3.22;;
2860;SDS011;1438;50.922;6.704;2023-03-12T01:17:00;5.22;;;3.17;;
2860;SDS011;1438;50.922;6.704;2023-03-12T01:19:26;2.92;;;2.30;;
2860;SDS011;1438;50.922;6.704;2023-03-12T01:21:52;6.45;;;2.90;;
2860;SDS011;1438;50.922;6.704;2023-03-12T01:24:18;4.40;;;2.67;;
2860;SDS011;1438;50.922;6.704;2023-03-12T01:26:44;5.30;;;2.58;;
2860;SDS011;1438;50.922;6.704;2023-03-12T01:29:10;6.53;;;2.95;;
2860;SDS011;1438;50.922;6.704;2023-03-12T01:31:36;4.35;;;3.20;;
2860;SDS011;1438;50.922;6.704;2023-03-12T01:34:02;5.55;;;3.20;;
2860;SDS011;1438;50.922;6.704;2023-03-12T01:36:28;10.13;;;2.50;;
2860;SDS011;1438;50.922;6.704;2023-03-12T01:38:56;11.95;;;3.10;;
2860;SDS011;1438;50.922;6.704;2023-03-12T01:41:23;11.13;;;2.75;;
2860;SDS011;1438;50.922;6.704;2023-03-12T01:43:49;5.30;;;2.40;;
2860;SDS011;1438;50.922;6.704;2023-03-12T01:46:26;7.90;;;2.90;;
2860;SDS011;1438;50.922;6.704;2023-03-12T01:48:54;7.35;;;2.75;;
2860;SDS011;1438;50.922;6.704;2023-03-12T01:51:21;6.45;;;2.65;;
2860;SDS011;1438;50.922;6.704;2023-03-12T01:53:50;6.63;;;2.85;;
2860;SDS011;1438;50.922;6.704;2023-03-12T01:56:18;6.25;;;2.47;;
2860;SDS011;1438;50.922;6.704;2023-03-12T01:58:48;3.60;;;2.60;;
2860;SDS011;1438;50.922;6.704;2023-03-12T02:01:15;5.18;;;2.33;;
2860;SDS011;1438;50.922;6.704;2023-03-12T02:03:42;8.57;;;2.55;;
2860;SDS011;1438;50.922;6.704;2023-03-12T02:06:11;5.43;;;2.53;;
2860;SDS011;1438;50.922;6.704;2023-03-12T02:08:40;4.35;;;3.20;;
2860;SDS011;1438;50.922;6.704;2023-03-12T02:11:06;3.22;;;2.10;;
2860;SDS011;1438;50.922;6.704;2023-03-12T02:13:32;8.15;;;2.33;;
2860;SDS011;1438;50.922;6.704;2023-03-12T02:15:58;5.38;;;2.05;;
2860;SDS011;1438;50.922;6.704;2023-03-12T02:18:25;5.53;;;2.40;;
2860;SDS011;1438;50.922;6.704;2023-03-12T02:23:26;2.92;;;2.28;;
2860;SDS011;1438;50.922;6.704;2023-03-12T02:25:53;9.15;;;2.22;;
2860;SDS011;1438;50.922;6.704;2023-03-12T02:28:21;8.23;;;2.97;;
2860;SDS011;1438;50.922;6.704;2023-03-12T02:30:49;4.35;;;2.70;;
2860;SDS011;1438;50.922;6.704;2023-03-12T02:33:16;6.13;;;1.90;;
2860;SDS011;1438;50.922;6.704;2023-03-12T02:35:42;10.25;;;2.40;;
2860;SDS011;1438;50.922;6.704;2023-03-12T02:40:53;8.80;;;2.15;;
2860;SDS011;1438;50.922;6.704;2023-03-12T02:43:20;6.53;;;2.00;;
2860;SDS011;1438;50.922;6.704;2023-03-12T02:45:47;4.15;;;1.70;;
2860;SDS011;1438;50.922;6.704;2023-03-12T02:48:13;4.05;;;2.25;;
2860;SDS011;1438;50.922;6.704;2023-03-12T02:50:39;3.90;;;2.55;;
2860;SDS011;1438;50.922;6.704;2023-03-12T02:53:05;7.53;;;2.38;;
2860;SDS011;1438;50.922;6.704;2023-03-12T02:55:31;3.90;;;2.00;;
2860;SDS011;1438;50.922;6.704;2023-03-12T02:57:57;5.80;;;2.60;;
2860;SDS011;1438;50.922;6.704;2023-03-12T03:00:23;4.00;;;2.45;;
2860;SDS011;1438;50.922;6.704;2023-03-12T03:02:49;4.47;;;2.13;;
2860;SDS011;1438;50.922;6.704;2023-03-12T03:05:15;2.75;;;2.30;;
2860;SDS011;1438;50.922;6.704;2023-03-12T03:07:41;4.90;;;1.83;;
2860;SDS011;1438;50.922;6.704;2023-03-12T03:10:07;4.25;;;2.15;;
2860;SDS011;1438;50.922;6.704;2023-03-12T03:12:34;3.50;;;2.25;;
2860;SDS011;1438;50.922;6.704;2023-03-12T03:15:00;3.92;;;2.20;;
2860;SDS011;1438;50.922;6.704;2023-03-12T03:17:26;4.40;;;2.50;;
2860;SDS011;1438;50.922;6.704;2023-03-12T03:19:52;10.38;;;2.80;;
2860;SDS011;1438;50.922;6.704;2023-03-12T03:22:19;3.40;;;2.20;;
2860;SDS011;1438;50.922;6.704;2023-03-12T03:24:45;5.95;;;2.53;;
2860;SDS011;1438;50.922;6.704;2023-03-12T03:27:12;9.27;;;2.28;;
2860;SDS011;1438;50.922;6.704;2023-03-12T03:29:38;4.18;;;2.25;;
2860;SDS011;1438;50.922;6.704;2023-03-12T03:32:04;2.60;;;1.98;;
2860;SDS011;1438;50.922;6.704;2023-03-12T03:34:30;9.48;;;2.90;;
2860;SDS011;1438;50.922;6.704;2023-03-12T03:36:56;5.00;;;2.30;;
2860;SDS011;1438;50.922;6.704;2023-03-12T03:39:22;5.05;;;2.53;;
2860;SDS011;1438;50.922;6.704;2023-03-12T03:41:49;7.38;;;2.40;;
2860;SDS011;1438;50.922;6.704;2023-03-12T03:44:16;5.55;;;2.40;;
2860;SDS011;1438;50.922;6.704;2023-03-12T03:46:42;4.55;;;2.55;;
2860;SDS011;1438;50.922;6.704;2023-03-12T03:49:08;3.25;;;2.20;;
2860;SDS011;1438;50.922;6.704;2023-03-12T03:51:34;5.13;;;2.78;;
2860;SDS011;1438;50.922;6.704;2023-03-12T03:54:00;6.35;;;2.47;;
2860;SDS011;1438;50.922;6.704;2023-03-12T03:56:26;3.75;;;2.25;;
2860;SDS011;1438;50.922;6.704;2023-03-12T03:58:52;2.20;;;2.00;;
2860;SDS011;1438;50.922;6.704;2023-03-12T04:01:18;2.90;;;1.90;;
2860;SDS011;1438;50.922;6.704;2023-03-12T04:03:45;11.38;;;2.60;;
2860;SDS011;1438;50.922;6.704;2023-03-12T04:06:11;3.25;;;2.00;;
2860;SDS011;1438;50.922;6.704;2023-03-12T04:08:37;4.90;;;3.13;;
2860;SDS011;1438;50.922;6.704;2023-03-12T04:11:07;3.85;;;2.15;;
2860;SDS011;1438;50.922;6.704;2023-03-12T04:13:33;3.28;;;2.08;;
2860;SDS011;1438;50.922;6.704;2023-03-12T04:15:59;4.90;;;2.40;;
2860;SDS011;1438;50.922;6.704;2023-03-12T04:18:25;11.15;;;2.55;;
2860;SDS011;1438;50.922;6.704;2023-03-12T04:20:51;6.45;;;3.78;;
2860;SDS011;1438;50.922;6.704;2023-03-12T04:23:17;4.40;;;2.10;;
2860;SDS011;1438;50.922;6.704;2023-03-12T04:25:43;3.20;;;1.83;;
2860;SDS011;1438;50.922;6.704;2023-03-12T04:28:09;5.57;;;2.35;;
2860;SDS011;1438;50.922;6.704;2023-03-12T04:30:35;2.58;;;1.73;;
2860;SDS011;1438;50.922;6.704;2023-03-12T04:33:02;6.03;;;1.88;;
2860;SDS011;1438;50.922;6.704;2023-03-12T04:35:29;3.80;;;2.55;;
2860;SDS011;1438;50.922;6.704;2023-03-12T04:37:55;4.13;;;2.20;;
2860;SDS011;1438;50.922;6.704;2023-03-12T04:40:21;5.28;;;2.35;;
2860;SDS011;1438;50.922;6.704;2023-03-12T04:42:47;9.68;;;2.90;;
2860;SDS011;1438;50.922;6.704;2023-03-12T04:45:13;3.95;;;2.00;;
2860;SDS011;1438;50.922;6.704;2023-03-12T04:47:39;6.22;;;2.60;;
2860;SDS011;1438;50.922;6.704;2023-03-12T04:50:05;3.70;;;2.45;;
2860;SDS011;1438;50.922;6.704;2023-03-12T04:52:32;3.63;;;2.65;;
2860;SDS011;1438;50.922;6.704;2023-03-12T04:54:58;3.70;;;2.38;;
2860;SDS011;1438;50.922;6.704;2023-03-12T04:57:24;7.68;;;2.92;;
2860;SDS011;1438;50.922;6.704;2023-03-12T04:59:50;3.35;;;2.42;;
2860;SDS011;1438;50.922;6.704;2023-03-12T05:02:16;5.10;;;2.47;;
2860;SDS011;1438;50.922;6.704;2023-03-12T05:04:42;5.90;;;2.90;;
2860;SDS011;1438;50.922;6.704;2023-03-12T05:07:08;7.15;;;2.78;;
2860;SDS011;1438;50.922;6.704;2023-03-12T05:09:34;3.40;;;2.60;;
2860;SDS011;1438;50.922;6.704;2023-03-12T05:12:00;5.93;;;2.58;;
2860;SDS011;1438;50.922;6.704;2023-03-12T05:14:26;10.00;;;3.13;;
2860;SDS011;1438;50.922;6.704;2023-03-12T05:16:53;4.95;;;3.22;;
2860;SDS011;1438;50.922;6.704;2023-03-12T05:19:19;8.88;;;2.95;;
2860;SDS011;1438;50.922;6.704;2023-03-12T05:21:45;6.03;;;2.70;;
2860;SDS011;1438;50.922;6.704;2023-03-12T05:24:11;6.25;;;2.45;;
2860;SDS011;1438;50.922;6.704;2023-03-12T05:26:37;7.28;;;2.85;;
2860;SDS011;1438;50.922;6.704;2023-03-12T05:29:03;7.50;;;2.92;;
2860;SDS011;1438;50.922;6.704;2023-03-12T05:31:29;8.80;;;3.40;;
2860;SDS011;1438;50.922;6.704;2023-03-12T05:33:58;5.50;;;2.65;;
2860;SDS011;1438;50.922;6.704;2023-03-12T05:36:24;7.13;;;2.85;;
2860;SDS011;1438;50.922;6.704;2023-03-12T05:38:50;5.97;;;2.80;;
2860;SDS011;1438;50.922;6.704;2023-03-12T05:41:18;7.78;;;3.53;;
2860;SDS011;1438;50.922;6.704;2023-03-12T05:43:44;7.53;;;2.88;;
2860;SDS011;1438;50.922;6.704;2023-03-12T05:46:10;10.73;;;3.17;;
2860;SDS011;1438;50.922;6.704;2023-03-12T05:48:36;9.02;;;2.55;;
2860;SDS011;1438;50.922;6.704;2023-03-12T05:51:02;3.53;;;3.20;;
2860;SDS011;1438;50.922;6.704;2023-03-12T05:53:28;5.75;;;2.92;;
2860;SDS011;1438;50.922;6.704;2023-03-12T05:55:54;3.90;;;2.60;;
2860;SDS011;1438;50.922;6.704;2023-03-12T05:58:20;7.82;;;3.38;;
2860;SDS011;1438;50.922;6.704;2023-03-12T06:00:47;3.90;;;2.40;;
2860;SDS011;1438;50.922;6.704;2023-03-12T06:03:13;4.45;;;2.33;;
2860;SDS011;1438;50.922;6.704;2023-03-12T06:05:39;10.38;;;3.20;;
2860;SDS011;1438;50.922;6.704;2023-03-12T06:08:05;4.53;;;2.60;;
2860;SDS011;1438;50.922;6.704;2023-03-12T06:10:31;10.02;;;3.28;;
2860;SDS011;1438;50.922;6.704;2023-03-12T06:12:57;5.63;;;2.67;;
2860;SDS011;1438;50.922;6.704;2023-03-12T06:15:23;4.45;;;2.95;;
2860;SDS011;1438;50.922;6.704;2023-03-12T06:17:49;5.85;;;2.85;;
2860;SDS011;1438;50.922;6.704;2023-03-12T06:20:15;4.38;;;2.42;;
2860;SDS011;1438;50.922;6.704;2023-03-12T06:22:42;7.38;;;2.72;;
2860;SDS011;1438;50.922;6.704;2023-03-12T06:25:08;5.07;;;3.60;;
2860;SDS011;1438;50.922;6.704;2023-03-12T06:27:34;8.38;;;3.22;;
2860;SDS011;1438;50.922;6.704;2023-03-12T06:30:00;5.00;;;3.42;;
2860;SDS011;1438;50.922;6.704;2023-03-12T06:32:27;8.95;;;3.50;;
2860;SDS011;1438;50.922;6.704;2023-03-12T06:34:53;8.55;;;2.92;;
2860;SDS011;1438;50.922;6.704;2023-03-12T06:37:19;5.32;;;2.75;;
2860;SDS011;1438;50.922;6.704;2023-03-12T06:39:45;7.80;;;2.80;;
2860;SDS011;1438;50.922;6.704;2023-03-12T06:42:11;5.88;;;3.22;;
2860;SDS011;1438;50.922;6.704;2023-03-12T06:44:38;4.82;;;2.83;;
2860;SDS011;1438;50.922;6.704;2023-03-12T06:47:04;6.13;;;3.13;;
2860;SDS011;1438;50.922;6.704;2023-03-12T06:49:30;4.78;;;3.13;;
2860;SDS011;1438;50.922;6.704;2023-03-12T06:51:58;6.35;;;2.85;;
2860;SDS011;1438;50.922;6.704;2023-03-12T06:54:24;8.50;;;2.90;;
2860;SDS011;1438;50.922;6.704;2023-03-12T06:56:50;7.55;;;3.05;;
2860;SDS011;1438;50.922;6.704;2023-03-12T06:59:16;4.45;;;2.55;;
2860;SDS011;1438;50.922;6.704;2023-03-12T07:01:42;3.85;;;2.75;;
2860;SDS011;1438;50.922;6.704;2023-03-12T07:04:08;8.25;;;2.90;;
2860;SDS011;1438;50.922;6.704;2023-03-12T07:06:34;8.45;;;3.55;;
2860;SDS011;1438;50.922;6.704;2023-03-12T07:09:00;6.82;;;3.38;;
2860;SDS011;1438;50.922;6.704;2023-03-12T07:11:26;7.43;;;3.85;;
2860;SDS011;1438;50.922;6.704;2023-03-12T07:13:52;4.85;;;3.33;;
2860;SDS011;1438;50.922;6.704;2023-03-12T07:16:18;6.10;;;3.35;;
2860;SDS011;1438;50.922;6.704;2023-03-12T07:18:44;3.42;;;2.90;;
2860;SDS011;1438;50.922;6.704;2023-03-12T07:21:10;8.20;;;3.72;;
2860;SDS011;1438;50.922;6.704;2023-03-12T07:23:36;8.70;;;3.47;;
2860;SDS011;1438;50.922;6.704;2023-03-12T07:26:03;4.25;;;3.00;;
2860;SDS011;1438;50.922;6.704;2023-03-12T07:28:29;7.25;;;3.20;;
2860;SDS011;1438;50.922;6.704;2023-03-12T07:30:59;6.70;;;2.90;;
2860;SDS011;1438;50.922;6.704;2023-03-12T07:33:25;5.28;;;3.38;;
2860;SDS011;1438;50.922;6.704;2023-03-12T07:35:51;5.78;;;3.15;;
2860;SDS011;1438;50.922;6.704;2023-03-12T07:38:17;8.65;;;3.65;;
2860;SDS011;1438;50.922;6.704;2023-03-12T07:40:43;8.18;;;3.50;;
2860;SDS011;1438;50.922;6.704;2023-03-12T07:43:09;4.57;;;3.00;;
2860;SDS011;1438;50.922;6.704;2023-03-12T07:45:37;5.95;;;3.75;;
2860;SDS011;1438;50.922;6.704;2023-03-12T07:48:04;5.07;;;3.05;;
2860;SDS011;1438;50.922;6.704;2023-03-12T07:50:30;5.32;;;2.90;;
2860;SDS011;1438;50.922;6.704;2023-03-12T07:52:56;6.68;;;3.33;;
2860;SDS011;1438;50.922;6.704;2023-03-12T07:55:22;7.28;;;3.60;;
2860;SDS011;1438;50.922;6.704;2023-03-12T07:57:48;5.00;;;3.60;;
2860;SDS011;1438;50.922;6.704;2023-03-12T08:00:15;6.53;;;3.25;;
2860;SDS011;1438;50.922;6.704;2023-03-12T08:02:42;3.83;;;3.42;;
2860;SDS011;1438;50.922;6.704;2023-03-12T08:05:08;4.97;;;2.95;;
2860;SDS011;1438;50.922;6.704;2023-03-12T08:07:34;4.78;;;3.45;;
2860;SDS011;1438;50.922;6.704;2023-03-12T08:10:01;5.03;;;3.00;;
2860;SDS011;1438;50.922;6.704;2023-03-12T08:12:27;5.25;;;2.92;;
2860;SDS011;1438;50.922;6.704;2023-03-12T08:14:53;9.55;;;4.10;;
2860;SDS011;1438;50.922;6.704;2023-03-12T08:17:19;4.90;;;3.72;;
2860;SDS011;1438;50.922;6.704;2023-03-12T08:19:45;4.38;;;3.53;;
2860;SDS011;1438;50.922;6.704;2023-03-12T08:22:11;4.25;;;3.80;;
2860;SDS011;1438;50.922;6.704;2023-03-12T08:24:37;5.30;;;3.80;;
2860;SDS011;1438;50.922;6.704;2023-03-12T08:27:03;6.65;;;4.03;;
2860;SDS011;1438;50.922;6.704;2023-03-12T08:29:29;5.20;;;4.70;;
2860;SDS011;1438;50.922;6.704;2023-03-12T08:31:57;7.65;;;5.15;;
2860;SDS011;1438;50.922;6.704;2023-03-12T08:34:23;4.60;;;4.20;;
2860;SDS011;1438;50.922;6.704;2023-03-12T08:36:49;8.07;;;4.30;;
2860;SDS011;1438;50.922;6.704;2023-03-12T08:39:15;4.93;;;4.43;;
2860;SDS011;1438;50.922;6.704;2023-03-12T08:41:41;7.25;;;4.75;;
2860;SDS011;1438;50.922;6.704;2023-03-12T08:44:07;7.63;;;4.20;;
2860;SDS011;1438;50.922;6.704;2023-03-12T08:46:33;6.07;;;4.70;;
2860;SDS011;1438;50.922;6.704;2023-03-12T08:48:59;5.15;;;4.65;;
2860;SDS011;1438;50.922;6.704;2023-03-12T08:51:25;6.60;;;5.10;;
2860;SDS011;1438;50.922;6.704;2023-03-12T08:53:51;9.90;;;5.63;;
2860;SDS011;1438;50.922;6.704;2023-03-12T08:56:17;6.13;;;5.55;;
2860;SDS011;1438;50.922;6.704;2023-03-12T08:58:43;7.28;;;5.38;;
2860;SDS011;1438;50.922;6.704;2023-03-12T09:01:10;5.85;;;4.70;;
2860;SDS011;1438;50.922;6.704;2023-03-12T09:03:36;6.15;;;5.53;;
2860;SDS011;1438;50.922;6.704;2023-03-12T09:06:06;8.02;;;5.65;;
2860;SDS011;1438;50.922;6.704;2023-03-12T09:08:36;7.35;;;5.90;;
2860;SDS011;1438;50.922;6.704;2023-03-12T09:11:03;6.50;;;5.90;;
2860;SDS011;1438;50.922;6.704;2023-03-12T09:13:29;7.70;;;6.70;;
2860;SDS011;1438;50.922;6.704;2023-03-12T09:15:58;8.15;;;6.35;;
2860;SDS011;1438;50.922;6.704;2023-03-12T09:18:25;7.95;;;6.38;;
2860;SDS011;1438;50.922;6.704;2023-03-12T09:20:51;8.60;;;6.20;;
2860;SDS011;1438;50.922;6.704;2023-03-12T09:23:17;7.47;;;6.72;;
2860;SDS011;1438;50.922;6.704;2023-03-12T09:25:46;9.57;;;7.75;;
2860;SDS011;1438;50.922;6.704;2023-03-12T09:28:12;8.18;;;6.50;;
2860;SDS011;1438;50.922;6.704;2023-03-12T09:30:38;8.15;;;7.07;;
2860;SDS011;1438;50.922;6.704;2023-03-12T09:33:04;8.00;;;6.43;;
2860;SDS011;1438;50.922;6.704;2023-03-12T09:35:31;8.25;;;6.18;;
2860;SDS011;1438;50.922;6.704;2023-03-12T09:37:57;9.18;;;7.00;;
2860;SDS011;1438;50.922;6.704;2023-03-12T09:40:24;8.60;;;6.65;;
2860;SDS011;1438;50.922;6.704;2023-03-12T09:42:57;6.68;;;5.93;;
2860;SDS011;1438;50.922;6.704;2023-03-12T09:45:24;7.68;;;6.90;;
2860;SDS011;1438;50.922;6.704;2023-03-12T09:47:52;8.10;;;6.45;;
2860;SDS011;1438;50.922;6.704;2023-03-12T09:50:20;7.60;;;5.65;;
2860;SDS011;1438;50.922;6.704;2023-03-12T09:52:52;6.28;;;5.68;;
2860;SDS011;1438;50.922;6.704;2023-03-12T09:55:21;7.40;;;5.97;;
2860;SDS011;1438;50.922;6.704;2023-03-12T09:57:48;7.05;;;6.15;;
2860;SDS011;1438;50.922;6.704;2023-03-12T10:00:22;5.88;;;5.30;;
2860;SDS011;1438;50.922;6.704;2023-03-12T10:02:53;6.35;;;5.47;;
2860;SDS011;1438;50.922;6.704;2023-03-12T10:07:57;13.07;;;6.40;;
2860;SDS011;1438;50.922;6.704;2023-03-12T10:10:28;6.88;;;5.50;;
2860;SDS011;1438;50.922;6.704;2023-03-12T10:13:02;12.32;;;6.63;;
2860;SDS011;1438;50.922;6.704;2023-03-12T10:18:07;9.32;;;7.55;;
2860;SDS011;1438;50.922;6.704;2023-03-12T10:20:48;7.22;;;5.93;;
2860;SDS011;1438;50.922;6.704;2023-03-12T10:25:59;6.10;;;5.50;;
2860;SDS011;1438;50.922;6.704;2023-03-12T10:28:49;8.05;;;7.25;;
2860;SDS011;1438;50.922;6.704;2023-03-12T10:31:16;6.60;;;5.40;;
2860;SDS011;1438;50.922;6.704;2023-03-12T10:33:45;4.68;;;3.90;;
2860;SDS011;1438;50.922;6.704;2023-03-12T10:36:22;14.38;;;4.72;;
2860;SDS011;1438;50.922;6.704;2023-03-12T10:38:49;7.72;;;5.32;;
2860;SDS011;1438;50.922;6.704;2023-03-12T10:41:18;6.72;;;4.93;;
2860;SDS011;1438;50.922;6.704;2023-03-12T10:43:44;7.50;;;4.28;;
2860;SDS011;1438;50.922;6.704;2023-03-12T10:48:40;9.55;;;6.63;;
2860;SDS011;1438;50.922;6.704;2023-03-12T10:51:08;12.27;;;6.68;;
2860;SDS011;1438;50.922;6.704;2023-03-12T10:53:36;13.98;;;7.13;;
2860;SDS011;1438;50.922;6.704;2023-03-12T10:58:48;15.27;;;7.55;;
2860;SDS011;1438;50.922;6.704;2023-03-12T11:01:22;10.57;;;7.68;;
2860;SDS011;1438;50.922;6.704;2023-03-12T11:03:48;20.42;;;8.15;;
2860;SDS011;1438;50.922;6.704;2023-03-12T11:06:28;11.52;;;7.05;;
2860;SDS011;1438;50.922;6.704;2023-03-12T11:09:02;24.63;;;9.35;;
2860;SDS011;1438;50.922;6.704;2023-03-12T11:11:30;16.63;;;8.50;;
2860;SDS011;1438;50.922;6.704;2023-03-12T11:14:06;19.10;;;8.93;;
2860;SDS011;1438;50.922;6.704;2023-03-12T11:16:33;17.63;;;9.30;;
2860;SDS011;1438;50.922;6.704;2023-03-12T11:19:00;14.43;;;8.05;;
2860;SDS011;1438;50.922;6.704;2023-03-12T11:21:28;16.92;;;9.07;;
2860;SDS011;1438;50.922;6.704;2023-03-12T11:31:40;14.52;;;8.00;;
2860;SDS011;1438;50.922;6.704;2023-03-12T11:34:13;21.88;;;8.60;;
2860;SDS011;1438;50.922;6.704;2023-03-12T11:44:19;18.08;;;9.10;;
2860;SDS011;1438;50.922;6.704;2023-03-12T11:46:55;18.52;;;8.80;;
2860;SDS011;1438;50.922;6.704;2023-03-12T11:52:18;14.73;;;8.60;;
2860;SDS011;1438;50.922;6.704;2023-03-12T11:54:59;18.00;;;8.55;;
2860;SDS011;1438;50.922;6.704;2023-03-12T12:00:17;21.55;;;9.75;;
2860;SDS011;1438;50.922;6.704;2023-03-12T12:08:18;15.30;;;6.85;;
2860;SDS011;1438;50.922;6.704;2023-03-12T12:13:41;13.05;;;6.30;;
2860;SDS011;1438;50.922;6.704;2023-03-12T12:26:33;12.00;;;4.22;;
2860;SDS011;1438;50.922;6.704;2023-03-12T12:29:27;17.05;;;5.07;;
2860;SDS011;1438;50.922;6.704;2023-03-12T12:31:52;16.55;;;5.38;;
2860;SDS011;1438;50.922;6.704;2023-03-12T12:36:47;18.30;;;4.90;;
2860;SDS011;1438;50.922;6.704;2023-03-12T12:39:38;13.68;;;3.63;;
2860;SDS011;1438;50.922;6.704;2023-03-12T12:42:06;8.63;;;3.30;;
2860;SDS011;1438;50.922;6.704;2023-03-12T12:44:48;16.25;;;4.50;;
2860;SDS011;1438;50.922;6.704;2023-03-12T12:47:17;14.65;;;4.35;;
2860;SDS011;1438;50.922;6.704;2023-03-12T12:49:48;16.92;;;4.00;;
2860;SDS011;1438;50.922;6.704;2023-03-12T12:52:16;13.18;;;3.75;;
2860;SDS011;1438;50.922;6.704;2023-03-12T13:00:24;15.02;;;5.30;;
2860;SDS011;1438;50.922;6.704;2023-03-12T13:02:56;14.55;;;4.97;;
2860;SDS011;1438;50.922;6.704;2023-03-12T13:06:04;11.75;;;5.75;;
2860;SDS011;1438;50.922;6.704;2023-03-12T13:13:43;14.00;;;3.83;;
2860;SDS011;1438;50.922;6.704;2023-03-12T13:16:51;12.77;;;4.93;;
2860;SDS011;1438;50.922;6.704;2023-03-12T13:19:21;16.38;;;3.47;;
2860;SDS011;1438;50.922;6.704;2023-03-12T13:24:33;17.85;;;3.65;;
2860;SDS011;1438;50.922;6.704;2023-03-12T13:27:07;15.98;;;4.40;;
2860;SDS011;1438;50.922;6.704;2023-03-12T13:29:38;28.83;;;4.82;;
2860;SDS011;1438;50.922;6.704;2023-03-12T13:32:07;23.23;;;5.22;;
2860;SDS011;1438;50.922;6.704;2023-03-12T13:34:41;12.05;;;5.20;;
2860;SDS011;1438;50.922;6.704;2023-03-12T13:37:19;19.55;;;5.10;;
2860;SDS011;1438;50.922;6.704;2023-03-12T13:39:46;23.08;;;5.47;;
2860;SDS011;1438;50.922;6.704;2023-03-12T13:44:47;19.50;;;4.07;;
2860;SDS011;1438;50.922;6.704;2023-03-12T13:47:21;17.08;;;3.45;;
2860;SDS011;1438;50.922;6.704;2023-03-12T13:53:07;14.75;;;3.88;;
2860;SDS011;1438;50.922;6.704;2023-03-12T13:55:40;17.83;;;4.00;;
2860;SDS011;1438;50.922;6.704;2023-03-12T13:58:08;14.98;;;3.80;;
2860;SDS011;1438;50.922;6.704;2023-03-12T14:00:50;18.73;;;3.63;;
2860;SDS011;1438;50.922;6.704;2023-03-12T14:03:19;18.92;;;3.33;;
2860;SDS011;1438;50.922;6.704;2023-03-12T14:05:57;14.70;;;3.85;;
2860;SDS011;1438;50.922;6.704;2023-03-12T14:11:07;13.63;;;3.60;;
2860;SDS011;1438;50.922;6.704;2023-03-12T14:16:24;16.05;;;4.50;;
2860;SDS011;1438;50.922;6.704;2023-03-12T14:18:53;7.65;;;2.33;;
2860;SDS011;1438;50.922;6.704;2023-03-12T14:21:19;15.05;;;4.63;;
2860;SDS011;1438;50.922;6.704;2023-03-12T14:23:55;14.18;;;3.75;;
2860;SDS011;1438;50.922;6.704;2023-03-12T14:26:23;19.95;;;4.93;;
2860;SDS011;1438;50.922;6.704;2023-03-12T14:28:53;17.45;;;3.67;;
2860;SDS011;1438;50.922;6.704;2023-03-12T14:31:20;14.93;;;4.10;;
2860;SDS011;1438;50.922;6.704;2023-03-12T14:36:41;9.65;;;3.90;;
2860;SDS011;1438;50.922;6.704;2023-03-12T14:39:29;20.48;;;4.15;;
2860;SDS011;1438;50.922;6.704;2023-03-12T14:42:00;17.52;;;3.88;;
2860;SDS011;1438;50.922;6.704;2023-03-12T14:44:29;18.50;;;4.07;;
2860;SDS011;1438;50.922;6.704;2023-03-12T14:46:59;17.35;;;4.47;;
2860;SDS011;1438;50.922;6.704;2023-03-12T14:49:26;21.13;;;4.75;;
2860;SDS011;1438;50.922;6.704;2023-03-12T14:51:52;24.05;;;4.20;;
2860;SDS011;1438;50.922;6.704;2023-03-12T14:54:19;18.65;;;4.72;;
2860;SDS011;1438;50.922;6.704;2023-03-12T14:56:47;14.52;;;4.35;;
2860;SDS011;1438;50.922;6.704;2023-03-12T14:59:32;16.00;;;5.88;;
2860;SDS011;1438;50.922;6.704;2023-03-12T15:02:11;16.48;;;4.47;;
2860;SDS011;1438;50.922;6.704;2023-03-12T15:04:38;17.23;;;4.45;;
2860;SDS011;1438;50.922;6.704;2023-03-12T15:07:05;15.40;;;4.07;;
2860;SDS011;1438;50.922;6.704;2023-03-12T15:09:34;17.85;;;3.65;;
2860;SDS011;1438;50.922;6.704;2023-03-12T15:12:02;17.45;;;4.65;;
2860;SDS011;1438;50.922;6.704;2023-03-12T15:14:30;15.43;;;4.53;;
2860;SDS011;1438;50.922;6.704;2023-03-12T15:16:57;25.67;;;5.90;;
2860;SDS011;1438;50.922;6.704;2023-03-12T15:19:25;22.08;;;5.40;;
2860;SDS011;1438;50.922;6.704;2023-03-12T15:21:52;17.17;;;3.85;;
2860;SDS011;1438;50.922;6.704;2023-03-12T15:24:18;16.92;;;4.13;;
2860;SDS011;1438;50.922;6.704;2023-03-12T15:26:45;16.23;;;4.57;;
2860;SDS011;1438;50.922;6.704;2023-03-12T15:31:40;19.17;;;5.32;;
2860;SDS011;1438;50.922;6.704;2023-03-12T15:34:09;15.98;;;4.32;;
2860;SDS011;1438;50.922;6.704;2023-03-12T15:36:35;20.25;;;4.60;;
2860;SDS011;1438;50.922;6.704;2023-03-12T15:39:03;15.48;;;3.88;;
2860;SDS011;1438;50.922;6.704;2023-03-12T15:41:41;19.90;;;4.53;;
2860;SDS011;1438;50.922;6.704;2023-03-12T15:44:17;16.38;;;3.85;;
2860;SDS011;1438;50.922;6.704;2023-03-12T15:46:48;20.45;;;4.28;;
2860;SDS011;1438;50.922;6.704;2023-03-12T15:49:18;17.02;;;4.25;;
2860;SDS011;1438;50.922;6.704;2023-03-12T15:51:56;13.68;;;4.22;;
2860;SDS011;1438;50.922;6.704;2023-03-12T15:54:26;16.60;;;3.83;;
2860;SDS011;1438;50.922;6.704;2023-03-12T15:56:53;16.45;;;4.50;;
2860;SDS011;1438;50.922;6.704;2023-03-12T15:59:23;14.10;;;3.70;;
2860;SDS011;1438;50.922;6.704;2023-03-12T16:01:53;14.65;;;3.83;;
2860;SDS011;1438;50.922;6.704;2023-03-12T16:04:20;16.92;;;4.45;;
2860;SDS011;1438;50.922;6.704;2023-03-12T16:06:47;21.13;;;3.78;;
2860;SDS011;1438;50.922;6.704;2023-03-12T16:09:23;24.27;;;4.15;;
2860;SDS011;1438;50.922;6.704;2023-03-12T16:11:51;18.52;;;4.72;;
2860;SDS011;1438;50.922;6.704;2023-03-12T16:14:18;13.65;;;3.75;;
2860;SDS011;1438;50.922;6.704;2023-03-12T16:16:45;17.17;;;4.70;;
2860;SDS011;1438;50.922;6.704;2023-03-12T16:19:12;14.68;;;3.88;;
2860;SDS011;1438;50.922;6.704;2023-03-12T16:21:39;17.10;;;4.00;;
2860;SDS011;1438;50.922;6.704;2023-03-12T16:24:05;27.17;;;4.80;;
2860;SDS011;1438;50.922;6.704;2023-03-12T16:26:32;18.70;;;3.90;;
2860;SDS011;1438;50.922;6.704;2023-03-12T16:28:59;14.43;;;3.80;;
2860;SDS011;1438;50.922;6.704;2023-03-12T16:31:25;14.63;;;4.70;;
2860;SDS011;1438;50.922;6.704;2023-03-12T16:33:51;16.33;;;3.70;;
2860;SDS011;1438;50.922;6.704;2023-03-12T16:36:17;19.45;;;4.43;;
2860;SDS011;1438;50.922;6.704;2023-03-12T16:38:43;18.40;;;4.90;;
2860;SDS011;1438;50.922;6.704;2023-03-12T16:41:13;19.85;;;3.88;;
2860;SDS011;1438;50.922;6.704;2023-03-12T16:43:41;15.85;;;4.18;;
2860;SDS011;1438;50.922;6.704;2023-03-12T16:46:08;22.20;;;4.45;;